sensor_id;sensor_type;location;lat;lon;timestamp;temperature;humidity
44851;DHT22;30583;48.714;9.386;2023-08-07T00:02:24;14.90;73.40
44851;DHT22;30583;48.714;9.386;2023-08-07T00:04:49;15.20;72.80
44851;DHT22;30583;48.714;9.386;2023-08-07T00:07:15;15.30;72.80
44851;DHT22;30583;48.714;9.386;2023-08-07T00:09:41;15.30;72.10
44851;DHT22;30583;48.714;9.386;2023-08-07T00:12:06;15.20;72.10
44851;DHT22;30583;48.714;9.386;2023-08-07T00:14:32;14.70;73.20
44851;DHT22;30583;48.714;9.386;2023-08-07T00:16:57;14.70;73.50
44851;DHT22;30583;48.714;9.386;2023-08-07T00:19:23;14.70;72.80
44851;DHT22;30583;48.714;9.386;2023-08-07T00:21:49;15.00;72.80
44851;DHT22;30583;48.714;9.386;2023-08-07T00:24:14;15.00;72.40
44851;DHT22;30583;48.714;9.386;2023-08-07T00:26:40;14.80;73.20
44851;DHT22;30583;48.714;9.386;2023-08-07T00:29:05;15.00;72.50
44851;DHT22;30583;48.714;9.386;2023-08-07T00:31:31;14.90;72.30
44851;DHT22;30583;48.714;9.386;2023-08-07T00:34:00;14.90;72.70
44851;DHT22;30583;48.714;9.386;2023-08-07T00:36:25;14.70;72.30
44851;DHT22;30583;48.714;9.386;2023-08-07T00:38:54;14.70;72.70
44851;DHT22;30583;48.714;9.386;2023-08-07T00:41:20;14.60;73.10
44851;DHT22;30583;48.714;9.386;2023-08-07T00:43:45;14.20;72.50
44851;DHT22;30583;48.714;9.386;2023-08-07T00:46:11;14.30;73.50
44851;DHT22;30583;48.714;9.386;2023-08-07T00:48:37;14.00;73.50
44851;DHT22;30583;48.714;9.386;2023-08-07T00:51:03;14.10;73.40
44851;DHT22;30583;48.714;9.386;2023-08-07T00:53:30;14.00;73.30
44851;DHT22;30583;48.714;9.386;2023-08-07T00:55:56;13.80;74.00
44851;DHT22;30583;48.714;9.386;2023-08-07T00:58:23;14.00;73.50
44851;DHT22;30583;48.714;9.386;2023-08-07T01:00:49;14.10;73.20
44851;DHT22;30583;48.714;9.386;2023-08-07T01:03:14;14.10;72.70
44851;DHT22;30583;48.714;9.386;2023-08-07T01:05:40;14.00;73.10
44851;DHT22;30583;48.714;9.386;2023-08-07T01:08:06;14.10;72.40
44851;DHT22;30583;48.714;9.386;2023-08-07T01:10:49;13.90;73.30
44851;DHT22;30583;48.714;9.386;2023-08-07T01:16:35;14.10;73.00
44851;DHT22;30583;48.714;9.386;2023-08-07T01:19:03;14.20;72.40
44851;DHT22;30583;48.714;9.386;2023-08-07T01:21:30;13.90;73.40
44851;DHT22;30583;48.714;9.386;2023-08-07T01:23:57;14.30;72.30
44851;DHT22;30583;48.714;9.386;2023-08-07T01:26:23;13.90;73.10
44851;DHT22;30583;48.714;9.386;2023-08-07T01:29:16;14.10;72.90
44851;DHT22;30583;48.714;9.386;2023-08-07T01:31:47;14.10;72.40
44851;DHT22;30583;48.714;9.386;2023-08-07T01:34:17;13.90;73.00
44851;DHT22;30583;48.714;9.386;2023-08-07T01:36:45;14.00;72.50
44851;DHT22;30583;48.714;9.386;2023-08-07T01:39:11;13.70;73.50
44851;DHT22;30583;48.714;9.386;2023-08-07T01:41:37;13.70;73.70
44851;DHT22;30583;48.714;9.386;2023-08-07T01:44:03;14.10;73.00
44851;DHT22;30583;48.714;9.386;2023-08-07T01:46:29;13.80;73.20
44851;DHT22;30583;48.714;9.386;2023-08-07T01:48:54;14.00;72.60
44851;DHT22;30583;48.714;9.386;2023-08-07T01:51:20;13.90;73.00
44851;DHT22;30583;48.714;9.386;2023-08-07T01:53:46;13.70;72.80
44851;DHT22;30583;48.714;9.386;2023-08-07T01:56:13;13.70;73.70
44851;DHT22;30583;48.714;9.386;2023-08-07T01:58:38;13.70;73.40
44851;DHT22;30583;48.714;9.386;2023-08-07T02:01:04;14.00;72.60
44851;DHT22;30583;48.714;9.386;2023-08-07T02:03:29;13.80;73.30
44851;DHT22;30583;48.714;9.386;2023-08-07T02:05:55;13.90;72.60
44851;DHT22;30583;48.714;9.386;2023-08-07T02:08:21;13.90;73.30
44851;DHT22;30583;48.714;9.386;2023-08-07T02:10:46;14.00;72.30
44851;DHT22;30583;48.714;9.386;2023-08-07T02:13:12;13.70;73.20
44851;DHT22;30583;48.714;9.386;2023-08-07T02:15:37;13.90;72.90
44851;DHT22;30583;48.714;9.386;2023-08-07T02:18:03;13.90;72.40
44851;DHT22;30583;48.714;9.386;2023-08-07T02:20:28;13.70;72.70
44851;DHT22;30583;48.714;9.386;2023-08-07T02:22:54;13.60;73.20
44851;DHT22;30583;48.714;9.386;2023-08-07T02:25:20;13.60;73.20
44851;DHT22;30583;48.714;9.386;2023-08-07T02:27:45;13.70;72.90
44851;DHT22;30583;48.714;9.386;2023-08-07T02:30:11;13.50;73.30
44851;DHT22;30583;48.714;9.386;2023-08-07T02:32:37;13.70;73.00
44851;DHT22;30583;48.714;9.386;2023-08-07T02:35:03;14.00;72.30
44851;DHT22;30583;48.714;9.386;2023-08-07T02:37:29;14.00;71.60
44851;DHT22;30583;48.714;9.386;2023-08-07T02:39:54;14.00;71.00
44851;DHT22;30583;48.714;9.386;2023-08-07T02:42:20;13.70;72.40
44851;DHT22;30583;48.714;9.386;2023-08-07T02:44:45;13.90;71.50
44851;DHT22;30583;48.714;9.386;2023-08-07T02:47:11;13.80;71.70
44851;DHT22;30583;48.714;9.386;2023-08-07T02:49:36;13.70;72.00
44851;DHT22;30583;48.714;9.386;2023-08-07T02:52:02;13.90;71.70
44851;DHT22;30583;48.714;9.386;2023-08-07T02:54:28;13.90;71.90
44851;DHT22;30583;48.714;9.386;2023-08-07T02:56:53;13.70;72.20
44851;DHT22;30583;48.714;9.386;2023-08-07T02:59:19;13.70;71.80
44851;DHT22;30583;48.714;9.386;2023-08-07T03:01:44;13.70;71.60
44851;DHT22;30583;48.714;9.386;2023-08-07T03:04:10;14.00;70.70
44851;DHT22;30583;48.714;9.386;2023-08-07T03:06:36;14.00;69.90
44851;DHT22;30583;48.714;9.386;2023-08-07T03:09:02;13.80;69.50
44851;DHT22;30583;48.714;9.386;2023-08-07T03:11:27;13.80;70.30
44851;DHT22;30583;48.714;9.386;2023-08-07T03:13:53;13.80;69.40
44851;DHT22;30583;48.714;9.386;2023-08-07T03:16:18;13.70;69.50
44851;DHT22;30583;48.714;9.386;2023-08-07T03:18:44;13.70;69.30
44851;DHT22;30583;48.714;9.386;2023-08-07T03:21:10;13.80;68.80
44851;DHT22;30583;48.714;9.386;2023-08-07T03:23:35;13.90;68.80
44851;DHT22;30583;48.714;9.386;2023-08-07T03:26:11;13.70;68.70
44851;DHT22;30583;48.714;9.386;2023-08-07T03:28:37;13.60;69.30
44851;DHT22;30583;48.714;9.386;2023-08-07T03:31:03;13.70;69.10
44851;DHT22;30583;48.714;9.386;2023-08-07T03:33:29;13.70;68.90
44851;DHT22;30583;48.714;9.386;2023-08-07T03:35:54;13.90;68.50
44851;DHT22;30583;48.714;9.386;2023-08-07T03:38:21;13.80;68.50
44851;DHT22;30583;48.714;9.386;2023-08-07T03:40:47;13.80;68.50
44851;DHT22;30583;48.714;9.386;2023-08-07T03:43:12;13.70;68.30
44851;DHT22;30583;48.714;9.386;2023-08-07T03:45:39;14.10;67.70
44851;DHT22;30583;48.714;9.386;2023-08-07T03:48:04;13.90;67.40
44851;DHT22;30583;48.714;9.386;2023-08-07T03:50:30;13.90;67.60
44851;DHT22;30583;48.714;9.386;2023-08-07T03:52:56;13.90;68.00
44851;DHT22;30583;48.714;9.386;2023-08-07T03:55:21;14.00;67.90
44851;DHT22;30583;48.714;9.386;2023-08-07T03:57:47;14.10;67.20
44851;DHT22;30583;48.714;9.386;2023-08-07T04:00:13;14.10;67.40
44851;DHT22;30583;48.714;9.386;2023-08-07T04:02:39;14.30;67.20
44851;DHT22;30583;48.714;9.386;2023-08-07T04:05:04;14.50;66.30
44851;DHT22;30583;48.714;9.386;2023-08-07T04:07:31;14.40;66.20
44851;DHT22;30583;48.714;9.386;2023-08-07T04:09:56;14.10;67.00
44851;DHT22;30583;48.714;9.386;2023-08-07T04:12:22;14.00;67.10
44851;DHT22;30583;48.714;9.386;2023-08-07T04:14:48;14.10;68.20
44851;DHT22;30583;48.714;9.386;2023-08-07T04:17:13;14.10;67.20
44851;DHT22;30583;48.714;9.386;2023-08-07T04:19:39;14.40;66.40
44851;DHT22;30583;48.714;9.386;2023-08-07T04:22:04;14.20;66.70
44851;DHT22;30583;48.714;9.386;2023-08-07T04:24:30;14.20;67.30
44851;DHT22;30583;48.714;9.386;2023-08-07T04:26:56;14.10;66.90
44851;DHT22;30583;48.714;9.386;2023-08-07T04:29:22;13.90;67.20
44851;DHT22;30583;48.714;9.386;2023-08-07T04:31:47;14.10;67.30
44851;DHT22;30583;48.714;9.386;2023-08-07T04:34:13;13.90;67.50
44851;DHT22;30583;48.714;9.386;2023-08-07T04:36:38;13.90;67.50
44851;DHT22;30583;48.714;9.386;2023-08-07T04:39:04;14.20;66.80
44851;DHT22;30583;48.714;9.386;2023-08-07T04:41:30;14.70;66.80
44851;DHT22;30583;48.714;9.386;2023-08-07T04:43:55;14.50;66.90
44851;DHT22;30583;48.714;9.386;2023-08-07T04:46:21;14.20;67.00
44851;DHT22;30583;48.714;9.386;2023-08-07T04:48:46;14.40;68.80
44851;DHT22;30583;48.714;9.386;2023-08-07T04:51:13;14.40;67.50
44851;DHT22;30583;48.714;9.386;2023-08-07T04:53:38;14.40;66.30
44851;DHT22;30583;48.714;9.386;2023-08-07T04:56:04;14.70;67.70
44851;DHT22;30583;48.714;9.386;2023-08-07T04:58:29;14.80;66.40
44851;DHT22;30583;48.714;9.386;2023-08-07T05:00:56;14.80;68.60
44851;DHT22;30583;48.714;9.386;2023-08-07T05:03:22;14.70;66.90
44851;DHT22;30583;48.714;9.386;2023-08-07T05:05:48;14.60;66.20
44851;DHT22;30583;48.714;9.386;2023-08-07T05:08:13;14.40;68.00
44851;DHT22;30583;48.714;9.386;2023-08-07T05:10:39;15.00;68.70
44851;DHT22;30583;48.714;9.386;2023-08-07T05:13:04;14.70;67.10
44851;DHT22;30583;48.714;9.386;2023-08-07T05:15:30;14.50;66.90
44851;DHT22;30583;48.714;9.386;2023-08-07T05:17:56;14.20;67.50
44851;DHT22;30583;48.714;9.386;2023-08-07T05:20:22;14.90;67.90
44851;DHT22;30583;48.714;9.386;2023-08-07T05:22:48;15.40;66.10
44851;DHT22;30583;48.714;9.386;2023-08-07T05:25:13;15.40;66.90
44851;DHT22;30583;48.714;9.386;2023-08-07T05:27:45;15.40;65.80
44851;DHT22;30583;48.714;9.386;2023-08-07T05:30:12;15.30;67.90
44851;DHT22;30583;48.714;9.386;2023-08-07T05:32:38;15.50;67.90
44851;DHT22;30583;48.714;9.386;2023-08-07T05:35:05;15.40;65.50
44851;DHT22;30583;48.714;9.386;2023-08-07T05:37:31;15.30;68.90
44851;DHT22;30583;48.714;9.386;2023-08-07T05:39:57;15.20;66.50
44851;DHT22;30583;48.714;9.386;2023-08-07T05:42:23;14.50;66.80
44851;DHT22;30583;48.714;9.386;2023-08-07T05:44:48;14.20;67.40
44851;DHT22;30583;48.714;9.386;2023-08-07T05:47:14;14.30;67.20
44851;DHT22;30583;48.714;9.386;2023-08-07T05:49:39;14.20;67.60
44851;DHT22;30583;48.714;9.386;2023-08-07T05:52:05;15.00;67.60
44851;DHT22;30583;48.714;9.386;2023-08-07T05:54:31;15.00;66.80
44851;DHT22;30583;48.714;9.386;2023-08-07T05:56:57;14.20;68.30
44851;DHT22;30583;48.714;9.386;2023-08-07T05:59:22;14.20;68.60
44851;DHT22;30583;48.714;9.386;2023-08-07T06:01:48;14.00;69.30
44851;DHT22;30583;48.714;9.386;2023-08-07T06:04:14;14.50;68.40
44851;DHT22;30583;48.714;9.386;2023-08-07T06:06:39;14.60;68.00
44851;DHT22;30583;48.714;9.386;2023-08-07T06:09:06;14.60;69.30
44851;DHT22;30583;48.714;9.386;2023-08-07T06:11:32;14.70;67.50
44851;DHT22;30583;48.714;9.386;2023-08-07T06:13:58;14.30;69.30
44851;DHT22;30583;48.714;9.386;2023-08-07T06:16:24;14.30;69.10
44851;DHT22;30583;48.714;9.386;2023-08-07T06:18:49;14.10;69.90
44851;DHT22;30583;48.714;9.386;2023-08-07T06:21:15;14.20;70.20
44851;DHT22;30583;48.714;9.386;2023-08-07T06:23:41;14.10;70.40
44851;DHT22;30583;48.714;9.386;2023-08-07T06:26:07;14.00;70.70
44851;DHT22;30583;48.714;9.386;2023-08-07T06:28:34;14.00;70.80
44851;DHT22;30583;48.714;9.386;2023-08-07T06:31:10;14.00;70.50
44851;DHT22;30583;48.714;9.386;2023-08-07T06:33:36;14.10;70.50
44851;DHT22;30583;48.714;9.386;2023-08-07T06:36:03;14.10;70.70
44851;DHT22;30583;48.714;9.386;2023-08-07T06:38:30;14.10;71.10
44851;DHT22;30583;48.714;9.386;2023-08-07T06:40:56;14.20;71.00
44851;DHT22;30583;48.714;9.386;2023-08-07T06:43:21;14.40;70.50
44851;DHT22;30583;48.714;9.386;2023-08-07T06:45:49;14.40;69.40
44851;DHT22;30583;48.714;9.386;2023-08-07T06:48:15;14.60;69.60
44851;DHT22;30583;48.714;9.386;2023-08-07T06:50:41;14.50;68.90
44851;DHT22;30583;48.714;9.386;2023-08-07T06:53:06;14.60;68.20
44851;DHT22;30583;48.714;9.386;2023-08-07T06:55:32;14.30;68.30
44851;DHT22;30583;48.714;9.386;2023-08-07T06:57:58;14.60;68.20
44851;DHT22;30583;48.714;9.386;2023-08-07T07:00:24;14.40;68.30
44851;DHT22;30583;48.714;9.386;2023-08-07T07:02:50;14.70;68.10
44851;DHT22;30583;48.714;9.386;2023-08-07T07:05:15;14.70;67.40
44851;DHT22;30583;48.714;9.386;2023-08-07T07:07:41;14.60;67.50
44851;DHT22;30583;48.714;9.386;2023-08-07T07:10:07;14.80;68.20
44851;DHT22;30583;48.714;9.386;2023-08-07T07:12:33;14.80;67.50
44851;DHT22;30583;48.714;9.386;2023-08-07T07:14:58;14.90;67.90
44851;DHT22;30583;48.714;9.386;2023-08-07T07:17:24;14.80;67.60
44851;DHT22;30583;48.714;9.386;2023-08-07T07:19:49;15.00;67.90
44851;DHT22;30583;48.714;9.386;2023-08-07T07:22:15;15.10;66.80
44851;DHT22;30583;48.714;9.386;2023-08-07T07:24:40;15.20;66.80
44851;DHT22;30583;48.714;9.386;2023-08-07T07:27:06;15.40;66.40
44851;DHT22;30583;48.714;9.386;2023-08-07T07:29:32;15.30;66.20
44851;DHT22;30583;48.714;9.386;2023-08-07T07:31:57;15.00;66.30
44851;DHT22;30583;48.714;9.386;2023-08-07T07:34:23;15.10;66.30
44851;DHT22;30583;48.714;9.386;2023-08-07T07:36:49;15.20;66.50
44851;DHT22;30583;48.714;9.386;2023-08-07T07:39:14;15.20;66.40
44851;DHT22;30583;48.714;9.386;2023-08-07T07:41:40;15.30;66.20
44851;DHT22;30583;48.714;9.386;2023-08-07T07:44:06;15.40;65.90
44851;DHT22;30583;48.714;9.386;2023-08-07T07:46:31;15.20;66.30
44851;DHT22;30583;48.714;9.386;2023-08-07T07:48:58;15.30;66.30
44851;DHT22;30583;48.714;9.386;2023-08-07T07:51:24;15.30;66.40
44851;DHT22;30583;48.714;9.386;2023-08-07T07:53:50;15.50;65.30
44851;DHT22;30583;48.714;9.386;2023-08-07T07:56:16;15.50;63.50
44851;DHT22;30583;48.714;9.386;2023-08-07T07:58:41;15.60;63.20
44851;DHT22;30583;48.714;9.386;2023-08-07T08:01:07;15.70;62.70
44851;DHT22;30583;48.714;9.386;2023-08-07T08:03:34;15.70;61.70
44851;DHT22;30583;48.714;9.386;2023-08-07T08:05:59;15.60;62.00
44851;DHT22;30583;48.714;9.386;2023-08-07T08:08:25;15.50;61.60
44851;DHT22;30583;48.714;9.386;2023-08-07T08:10:51;15.60;62.00
44851;DHT22;30583;48.714;9.386;2023-08-07T08:13:17;15.70;60.90
44851;DHT22;30583;48.714;9.386;2023-08-07T08:15:43;15.80;60.80
44851;DHT22;30583;48.714;9.386;2023-08-07T08:18:09;16.10;61.40
44851;DHT22;30583;48.714;9.386;2023-08-07T08:20:36;16.10;60.00
44851;DHT22;30583;48.714;9.386;2023-08-07T08:23:01;16.20;60.60
44851;DHT22;30583;48.714;9.386;2023-08-07T08:25:27;16.30;61.10
44851;DHT22;30583;48.714;9.386;2023-08-07T08:27:53;16.20;60.10
44851;DHT22;30583;48.714;9.386;2023-08-07T08:30:19;16.30;58.10
44851;DHT22;30583;48.714;9.386;2023-08-07T08:32:44;16.10;56.80
44851;DHT22;30583;48.714;9.386;2023-08-07T08:35:10;16.20;55.60
44851;DHT22;30583;48.714;9.386;2023-08-07T08:37:36;16.00;55.50
44851;DHT22;30583;48.714;9.386;2023-08-07T08:40:02;16.00;55.80
44851;DHT22;30583;48.714;9.386;2023-08-07T08:42:28;16.00;55.30
44851;DHT22;30583;48.714;9.386;2023-08-07T08:44:57;16.10;57.50
44851;DHT22;30583;48.714;9.386;2023-08-07T08:47:26;16.10;58.00
44851;DHT22;30583;48.714;9.386;2023-08-07T08:50:01;16.10;58.80
44851;DHT22;30583;48.714;9.386;2023-08-07T08:52:28;16.40;58.40
44851;DHT22;30583;48.714;9.386;2023-08-07T08:54:56;16.20;57.90
44851;DHT22;30583;48.714;9.386;2023-08-07T08:57:23;16.50;57.00
44851;DHT22;30583;48.714;9.386;2023-08-07T08:59:50;16.50;57.00
44851;DHT22;30583;48.714;9.386;2023-08-07T09:02:16;16.70;57.20
44851;DHT22;30583;48.714;9.386;2023-08-07T09:04:42;16.40;54.10
44851;DHT22;30583;48.714;9.386;2023-08-07T09:07:09;16.50;53.40
44851;DHT22;30583;48.714;9.386;2023-08-07T09:09:36;16.60;51.20
44851;DHT22;30583;48.714;9.386;2023-08-07T09:12:03;16.60;51.60
44851;DHT22;30583;48.714;9.386;2023-08-07T09:14:30;16.70;51.10
44851;DHT22;30583;48.714;9.386;2023-08-07T09:16:59;16.70;50.60
44851;DHT22;30583;48.714;9.386;2023-08-07T09:19:26;16.90;50.00
44851;DHT22;30583;48.714;9.386;2023-08-07T09:21:52;17.00;50.30
44851;DHT22;30583;48.714;9.386;2023-08-07T09:24:18;17.10;51.50
44851;DHT22;30583;48.714;9.386;2023-08-07T09:26:45;17.30;50.60
44851;DHT22;30583;48.714;9.386;2023-08-07T09:29:11;17.30;50.60
44851;DHT22;30583;48.714;9.386;2023-08-07T09:31:37;17.60;51.90
44851;DHT22;30583;48.714;9.386;2023-08-07T09:34:03;17.60;51.80
44851;DHT22;30583;48.714;9.386;2023-08-07T09:36:31;17.70;50.20
44851;DHT22;30583;48.714;9.386;2023-08-07T09:39:00;17.70;50.90
44851;DHT22;30583;48.714;9.386;2023-08-07T09:41:29;18.20;51.20
44851;DHT22;30583;48.714;9.386;2023-08-07T09:43:54;18.10;50.60
44851;DHT22;30583;48.714;9.386;2023-08-07T09:46:20;18.00;49.60
44851;DHT22;30583;48.714;9.386;2023-08-07T09:48:46;17.90;48.90
44851;DHT22;30583;48.714;9.386;2023-08-07T09:51:11;17.70;49.70
44851;DHT22;30583;48.714;9.386;2023-08-07T09:53:38;17.60;50.00
44851;DHT22;30583;48.714;9.386;2023-08-07T09:56:03;17.70;50.20
44851;DHT22;30583;48.714;9.386;2023-08-07T09:58:29;17.80;49.50
44851;DHT22;30583;48.714;9.386;2023-08-07T10:00:55;18.00;48.80
44851;DHT22;30583;48.714;9.386;2023-08-07T10:03:25;18.10;48.20
44851;DHT22;30583;48.714;9.386;2023-08-07T10:05:51;18.20;48.60
44851;DHT22;30583;48.714;9.386;2023-08-07T10:08:18;18.10;48.70
44851;DHT22;30583;48.714;9.386;2023-08-07T10:10:44;18.30;49.50
44851;DHT22;30583;48.714;9.386;2023-08-07T10:13:12;18.30;50.90
44851;DHT22;30583;48.714;9.386;2023-08-07T10:15:39;18.20;50.10
44851;DHT22;30583;48.714;9.386;2023-08-07T10:18:07;18.20;49.80
44851;DHT22;30583;48.714;9.386;2023-08-07T10:20:33;18.20;50.90
44851;DHT22;30583;48.714;9.386;2023-08-07T10:23:09;17.90;50.30
44851;DHT22;30583;48.714;9.386;2023-08-07T10:25:39;18.30;49.30
44851;DHT22;30583;48.714;9.386;2023-08-07T10:28:09;18.30;49.30
44851;DHT22;30583;48.714;9.386;2023-08-07T10:30:36;18.20;49.40
44851;DHT22;30583;48.714;9.386;2023-08-07T10:33:02;18.00;49.00
44851;DHT22;30583;48.714;9.386;2023-08-07T10:35:33;18.10;49.60
44851;DHT22;30583;48.714;9.386;2023-08-07T10:38:08;17.90;49.20
44851;DHT22;30583;48.714;9.386;2023-08-07T10:41:07;18.20;49.50
44851;DHT22;30583;48.714;9.386;2023-08-07T10:43:40;18.70;48.50
44851;DHT22;30583;48.714;9.386;2023-08-07T10:46:09;18.80;47.10
44851;DHT22;30583;48.714;9.386;2023-08-07T10:51:05;18.40;47.50
44851;DHT22;30583;48.714;9.386;2023-08-07T10:53:31;18.20;47.30
44851;DHT22;30583;48.714;9.386;2023-08-07T10:55:57;18.10;47.60
44851;DHT22;30583;48.714;9.386;2023-08-07T10:58:29;18.10;45.20
44851;DHT22;30583;48.714;9.386;2023-08-07T11:01:21;18.20;45.20
44851;DHT22;30583;48.714;9.386;2023-08-07T11:03:58;18.40;45.90
44851;DHT22;30583;48.714;9.386;2023-08-07T11:06:32;18.30;45.60
44851;DHT22;30583;48.714;9.386;2023-08-07T11:08:59;17.90;45.90
44851;DHT22;30583;48.714;9.386;2023-08-07T11:11:24;17.80;46.80
44851;DHT22;30583;48.714;9.386;2023-08-07T11:13:51;17.80;47.30
44851;DHT22;30583;48.714;9.386;2023-08-07T11:16:17;17.70;47.00
44851;DHT22;30583;48.714;9.386;2023-08-07T11:18:47;17.70;47.70
44851;DHT22;30583;48.714;9.386;2023-08-07T11:21:13;17.60;47.70
44851;DHT22;30583;48.714;9.386;2023-08-07T11:23:39;17.70;48.20
44851;DHT22;30583;48.714;9.386;2023-08-07T11:26:05;17.80;48.00
44851;DHT22;30583;48.714;9.386;2023-08-07T11:28:31;17.70;48.30
44851;DHT22;30583;48.714;9.386;2023-08-07T11:30:57;17.70;49.00
44851;DHT22;30583;48.714;9.386;2023-08-07T11:33:24;17.90;49.50
44851;DHT22;30583;48.714;9.386;2023-08-07T11:35:50;17.80;48.10
44851;DHT22;30583;48.714;9.386;2023-08-07T11:38:33;17.80;48.90
44851;DHT22;30583;48.714;9.386;2023-08-07T11:41:03;17.70;48.90
44851;DHT22;30583;48.714;9.386;2023-08-07T11:43:30;17.60;49.00
44851;DHT22;30583;48.714;9.386;2023-08-07T11:45:57;17.40;49.10
44851;DHT22;30583;48.714;9.386;2023-08-07T11:48:32;17.30;49.60
44851;DHT22;30583;48.714;9.386;2023-08-07T11:50:58;17.30;50.00
44851;DHT22;30583;48.714;9.386;2023-08-07T11:53:26;17.40;50.20
44851;DHT22;30583;48.714;9.386;2023-08-07T11:56:02;17.50;50.90
44851;DHT22;30583;48.714;9.386;2023-08-07T11:58:40;17.40;52.30
44851;DHT22;30583;48.714;9.386;2023-08-07T12:01:06;17.20;52.50
44851;DHT22;30583;48.714;9.386;2023-08-07T12:03:35;17.30;52.30
44851;DHT22;30583;48.714;9.386;2023-08-07T12:06:03;17.20;52.90
44851;DHT22;30583;48.714;9.386;2023-08-07T12:11:01;17.10;53.50
44851;DHT22;30583;48.714;9.386;2023-08-07T12:13:29;17.10;54.50
44851;DHT22;30583;48.714;9.386;2023-08-07T12:15:55;17.20;55.00
44851;DHT22;30583;48.714;9.386;2023-08-07T12:18:22;17.20;56.20
44851;DHT22;30583;48.714;9.386;2023-08-07T12:21:01;17.00;55.40
44851;DHT22;30583;48.714;9.386;2023-08-07T12:23:27;16.90;55.90
44851;DHT22;30583;48.714;9.386;2023-08-07T12:25:53;16.80;55.10
44851;DHT22;30583;48.714;9.386;2023-08-07T12:28:19;16.80;55.00
44851;DHT22;30583;48.714;9.386;2023-08-07T12:30:46;16.80;54.60
44851;DHT22;30583;48.714;9.386;2023-08-07T12:33:12;16.80;54.10
44851;DHT22;30583;48.714;9.386;2023-08-07T12:35:38;16.90;54.30
44851;DHT22;30583;48.714;9.386;2023-08-07T12:38:03;16.80;54.70
44851;DHT22;30583;48.714;9.386;2023-08-07T12:40:30;16.90;54.80
44851;DHT22;30583;48.714;9.386;2023-08-07T12:42:57;16.90;55.70
44851;DHT22;30583;48.714;9.386;2023-08-07T12:45:23;17.10;56.70
44851;DHT22;30583;48.714;9.386;2023-08-07T12:47:49;17.00;57.60
44851;DHT22;30583;48.714;9.386;2023-08-07T12:50:14;16.90;56.60
44851;DHT22;30583;48.714;9.386;2023-08-07T12:52:40;16.80;57.00
44851;DHT22;30583;48.714;9.386;2023-08-07T12:55:06;17.00;55.00
44851;DHT22;30583;48.714;9.386;2023-08-07T12:57:32;17.00;55.90
44851;DHT22;30583;48.714;9.386;2023-08-07T12:59:58;17.10;56.10
44851;DHT22;30583;48.714;9.386;2023-08-07T13:02:23;17.10;56.20
44851;DHT22;30583;48.714;9.386;2023-08-07T13:04:49;17.00;56.00
44851;DHT22;30583;48.714;9.386;2023-08-07T13:07:14;16.90;57.00
44851;DHT22;30583;48.714;9.386;2023-08-07T13:09:40;16.80;57.00
44851;DHT22;30583;48.714;9.386;2023-08-07T13:12:06;16.90;57.30
44851;DHT22;30583;48.714;9.386;2023-08-07T13:14:32;17.10;56.70
44851;DHT22;30583;48.714;9.386;2023-08-07T13:16:57;17.20;56.60
44851;DHT22;30583;48.714;9.386;2023-08-07T13:19:23;17.40;56.80
44851;DHT22;30583;48.714;9.386;2023-08-07T13:21:48;17.40;56.70
44851;DHT22;30583;48.714;9.386;2023-08-07T13:24:14;17.30;56.80
44851;DHT22;30583;48.714;9.386;2023-08-07T13:26:39;17.30;56.60
44851;DHT22;30583;48.714;9.386;2023-08-07T13:29:13;17.20;56.40
44851;DHT22;30583;48.714;9.386;2023-08-07T13:31:39;17.10;57.40
44851;DHT22;30583;48.714;9.386;2023-08-07T13:34:11;17.20;57.40
44851;DHT22;30583;48.714;9.386;2023-08-07T13:36:38;17.30;57.20
44851;DHT22;30583;48.714;9.386;2023-08-07T13:39:04;17.50;56.80
44851;DHT22;30583;48.714;9.386;2023-08-07T13:41:32;17.70;56.10
44851;DHT22;30583;48.714;9.386;2023-08-07T13:43:58;17.60;57.00
44851;DHT22;30583;48.714;9.386;2023-08-07T13:46:23;17.70;56.70
44851;DHT22;30583;48.714;9.386;2023-08-07T13:48:49;17.90;62.40
44851;DHT22;30583;48.714;9.386;2023-08-07T13:51:15;19.10;58.70
44851;DHT22;30583;48.714;9.386;2023-08-07T13:53:42;19.80;55.20
44851;DHT22;30583;48.714;9.386;2023-08-07T13:56:07;20.20;54.80
44851;DHT22;30583;48.714;9.386;2023-08-07T13:58:36;20.00;53.20
44851;DHT22;30583;48.714;9.386;2023-08-07T14:01:02;18.20;53.90
44851;DHT22;30583;48.714;9.386;2023-08-07T14:03:27;17.70;55.80
44851;DHT22;30583;48.714;9.386;2023-08-07T14:05:53;17.50;57.00
44851;DHT22;30583;48.714;9.386;2023-08-07T14:08:19;17.50;56.70
44851;DHT22;30583;48.714;9.386;2023-08-07T14:10:44;17.40;57.00
44851;DHT22;30583;48.714;9.386;2023-08-07T14:13:10;17.50;57.20
44851;DHT22;30583;48.714;9.386;2023-08-07T14:15:37;17.70;57.20
44851;DHT22;30583;48.714;9.386;2023-08-07T14:18:02;17.90;56.50
44851;DHT22;30583;48.714;9.386;2023-08-07T14:20:28;17.90;55.60
44851;DHT22;30583;48.714;9.386;2023-08-07T14:22:54;18.10;55.70
44851;DHT22;30583;48.714;9.386;2023-08-07T14:25:19;18.10;55.10
44851;DHT22;30583;48.714;9.386;2023-08-07T14:27:48;18.30;54.40
44851;DHT22;30583;48.714;9.386;2023-08-07T14:30:14;18.40;54.70
44851;DHT22;30583;48.714;9.386;2023-08-07T14:32:40;18.30;54.70
44851;DHT22;30583;48.714;9.386;2023-08-07T14:35:08;18.20;55.20
44851;DHT22;30583;48.714;9.386;2023-08-07T14:37:33;18.20;52.70
44851;DHT22;30583;48.714;9.386;2023-08-07T14:39:59;18.30;53.30
44851;DHT22;30583;48.714;9.386;2023-08-07T14:42:24;19.00;53.00
44851;DHT22;30583;48.714;9.386;2023-08-07T14:44:50;19.00;52.30
44851;DHT22;30583;48.714;9.386;2023-08-07T14:47:15;18.70;52.40
44851;DHT22;30583;48.714;9.386;2023-08-07T14:49:41;18.70;52.60
44851;DHT22;30583;48.714;9.386;2023-08-07T14:52:07;18.40;53.00
44851;DHT22;30583;48.714;9.386;2023-08-07T14:54:33;18.50;53.60
44851;DHT22;30583;48.714;9.386;2023-08-07T14:56:58;18.30;52.30
44851;DHT22;30583;48.714;9.386;2023-08-07T14:59:25;18.40;51.80
44851;DHT22;30583;48.714;9.386;2023-08-07T15:01:51;18.30;51.90
44851;DHT22;30583;48.714;9.386;2023-08-07T15:04:16;18.20;51.20
44851;DHT22;30583;48.714;9.386;2023-08-07T15:06:42;18.20;51.30
44851;DHT22;30583;48.714;9.386;2023-08-07T15:09:08;18.30;51.00
44851;DHT22;30583;48.714;9.386;2023-08-07T15:11:34;18.40;50.60
44851;DHT22;30583;48.714;9.386;2023-08-07T15:14:00;18.50;51.40
44851;DHT22;30583;48.714;9.386;2023-08-07T15:16:27;18.60;50.60
44851;DHT22;30583;48.714;9.386;2023-08-07T15:18:52;18.70;50.60
44851;DHT22;30583;48.714;9.386;2023-08-07T15:21:18;18.70;51.30
44851;DHT22;30583;48.714;9.386;2023-08-07T15:23:44;18.70;51.70
44851;DHT22;30583;48.714;9.386;2023-08-07T15:26:09;18.70;51.80
44851;DHT22;30583;48.714;9.386;2023-08-07T15:28:35;19.00;52.20
44851;DHT22;30583;48.714;9.386;2023-08-07T15:31:01;19.10;50.50
44851;DHT22;30583;48.714;9.386;2023-08-07T15:33:26;18.90;49.90
44851;DHT22;30583;48.714;9.386;2023-08-07T15:35:55;19.00;50.30